sensor_id;sensor_type;location;lat;lon;timestamp;P1;durP1;ratioP1;P2;durP2;ratioP2
61897;SDS011;47850;50.274;18.908;2023-02-11T00:01:29;76.30;;;29.70;;
61897;SDS011;47850;50.274;18.908;2023-02-11T00:04:00;56.80;;;25.00;;
61897;SDS011;47850;50.274;18.908;2023-02-11T00:06:29;61.30;;;24.20;;
61897;SDS011;47850;50.274;18.908;2023-02-11T00:08:59;43.50;;;18.30;;
61897;SDS011;47850;50.274;18.908;2023-02-11T00:11:27;60.80;;;24.20;;
61897;SDS011;47850;50.274;18.908;2023-02-11T00:13:59;49.50;;;19.70;;
61897;SDS011;47850;50.274;18.908;2023-02-11T00:16:29;50.60;;;19.70;;
61897;SDS011;47850;50.274;18.908;2023-02-11T00:18:59;72.20;;;25.90;;
61897;SDS011;47850;50.274;18.908;2023-02-11T00:21:28;60.70;;;25.40;;
61897;SDS011;47850;50.274;18.908;2023-02-11T00:23:57;41.40;;;16.80;;
61897;SDS011;47850;50.274;18.908;2023-02-11T00:26:29;47.20;;;19.80;;
61897;SDS011;47850;50.274;18.908;2023-02-11T00:28:59;43.40;;;17.70;;
61897;SDS011;47850;50.274;18.908;2023-02-11T00:31:28;48.10;;;16.40;;
61897;SDS011;47850;50.274;18.908;2023-02-11T00:33:56;71.10;;;25.70;;
61897;SDS011;47850;50.274;18.908;2023-02-11T00:36:25;53.30;;;21.20;;
61897;SDS011;47850;50.274;18.908;2023-02-11T00:38:56;49.30;;;20.70;;
61897;SDS011;47850;50.274;18.908;2023-02-11T00:41:24;45.70;;;18.40;;
61897;SDS011;47850;50.274;18.908;2023-02-11T00:43:52;58.30;;;22.60;;
61897;SDS011;47850;50.274;18.908;2023-02-11T00:46:20;46.80;;;20.20;;
61897;SDS011;47850;50.274;18.908;2023-02-11T00:48:49;41.10;;;16.70;;
61897;SDS011;47850;50.274;18.908;2023-02-11T00:51:19;51.00;;;18.20;;
61897;SDS011;47850;50.274;18.908;2023-02-11T00:53:47;51.70;;;21.60;;
61897;SDS011;47850;50.274;18.908;2023-02-11T00:56:15;46.60;;;19.30;;
61897;SDS011;47850;50.274;18.908;2023-02-11T00:58:43;49.50;;;18.90;;
61897;SDS011;47850;50.274;18.908;2023-02-11T01:01:11;38.20;;;16.70;;
61897;SDS011;47850;50.274;18.908;2023-02-11T01:03:39;51.30;;;21.20;;
61897;SDS011;47850;50.274;18.908;2023-02-11T01:06:07;55.20;;;21.50;;
61897;SDS011;47850;50.274;18.908;2023-02-11T01:08:36;63.60;;;23.50;;
61897;SDS011;47850;50.274;18.908;2023-02-11T01:11:06;44.40;;;17.10;;
61897;SDS011;47850;50.274;18.908;2023-02-11T01:13:38;89.20;;;29.40;;
61897;SDS011;47850;50.274;18.908;2023-02-11T01:16:06;91.20;;;28.40;;
61897;SDS011;47850;50.274;18.908;2023-02-11T01:18:36;65.70;;;20.90;;
61897;SDS011;47850;50.274;18.908;2023-02-11T01:21:04;79.20;;;26.50;;
61897;SDS011;47850;50.274;18.908;2023-02-11T01:23:32;71.50;;;25.40;;
61897;SDS011;47850;50.274;18.908;2023-02-11T01:26:00;62.20;;;20.80;;
61897;SDS011;47850;50.274;18.908;2023-02-11T01:28:29;40.30;;;15.30;;
61897;SDS011;47850;50.274;18.908;2023-02-11T01:30:58;59.90;;;24.80;;
61897;SDS011;47850;50.274;18.908;2023-02-11T01:33:27;43.20;;;18.60;;
61897;SDS011;47850;50.274;18.908;2023-02-11T01:35:59;61.20;;;22.50;;
61897;SDS011;47850;50.274;18.908;2023-02-11T01:38:29;43.10;;;16.50;;
61897;SDS011;47850;50.274;18.908;2023-02-11T01:40:58;53.00;;;20.10;;
61897;SDS011;47850;50.274;18.908;2023-02-11T01:43:30;51.00;;;22.70;;
61897;SDS011;47850;50.274;18.908;2023-02-11T01:48:57;46.00;;;18.40;;
61897;SDS011;47850;50.274;18.908;2023-02-11T01:51:33;47.00;;;18.80;;
61897;SDS011;47850;50.274;18.908;2023-02-11T01:54:09;41.90;;;18.60;;
61897;SDS011;47850;50.274;18.908;2023-02-11T01:57:00;43.40;;;18.20;;
61897;SDS011;47850;50.274;18.908;2023-02-11T02:02:39;39.90;;;16.40;;
61897;SDS011;47850;50.274;18.908;2023-02-11T02:08:16;23.70;;;12.30;;
61897;SDS011;47850;50.274;18.908;2023-02-11T02:10:50;27.00;;;13.40;;
61897;SDS011;47850;50.274;18.908;2023-02-11T02:13:22;38.00;;;17.20;;
61897;SDS011;47850;50.274;18.908;2023-02-11T02:15:52;52.00;;;22.20;;
61897;SDS011;47850;50.274;18.908;2023-02-11T02:27:17;43.50;;;18.70;;
61897;SDS011;47850;50.274;18.908;2023-02-11T02:33:13;44.50;;;20.10;;
61897;SDS011;47850;50.274;18.908;2023-02-11T02:39:02;26.70;;;11.30;;
61897;SDS011;47850;50.274;18.908;2023-02-11T02:41:52;41.90;;;19.30;;
61897;SDS011;47850;50.274;18.908;2023-02-11T02:44:23;28.90;;;13.40;;
61897;SDS011;47850;50.274;18.908;2023-02-11T02:46:51;20.90;;;9.80;;
61897;SDS011;47850;50.274;18.908;2023-02-11T02:49:19;28.80;;;13.40;;
61897;SDS011;47850;50.274;18.908;2023-02-11T03:05:41;41.40;;;17.30;;
61897;SDS011;47850;50.274;18.908;2023-02-11T03:10:51;33.10;;;15.60;;
61897;SDS011;47850;50.274;18.908;2023-02-11T03:13:21;46.40;;;20.50;;
61897;SDS011;47850;50.274;18.908;2023-02-11T03:15:54;34.40;;;15.60;;
61897;SDS011;47850;50.274;18.908;2023-02-11T03:18:26;28.80;;;13.20;;
61897;SDS011;47850;50.274;18.908;2023-02-11T03:20:57;47.90;;;22.30;;
61897;SDS011;47850;50.274;18.908;2023-02-11T03:26:29;37.80;;;16.50;;
61897;SDS011;47850;50.274;18.908;2023-02-11T03:34:56;46.50;;;22.40;;
61897;SDS011;47850;50.274;18.908;2023-02-11T03:37:42;28.60;;;13.60;;
61897;SDS011;47850;50.274;18.908;2023-02-11T03:40:27;20.40;;;10.80;;
61897;SDS011;47850;50.274;18.908;2023-02-11T03:43:00;33.40;;;15.30;;
61897;SDS011;47850;50.274;18.908;2023-02-11T03:45:34;41.00;;;16.90;;
61897;SDS011;47850;50.274;18.908;2023-02-11T03:48:11;35.40;;;15.50;;
61897;SDS011;47850;50.274;18.908;2023-02-11T03:50:43;25.30;;;12.00;;
61897;SDS011;47850;50.274;18.908;2023-02-11T03:53:14;32.20;;;14.10;;
61897;SDS011;47850;50.274;18.908;2023-02-11T03:55:42;33.70;;;14.70;;
61897;SDS011;47850;50.274;18.908;2023-02-11T03:58:12;20.70;;;10.30;;
61897;SDS011;47850;50.274;18.908;2023-02-11T04:00:40;26.30;;;13.60;;
61897;SDS011;47850;50.274;18.908;2023-02-11T04:03:10;25.30;;;11.30;;
61897;SDS011;47850;50.274;18.908;2023-02-11T04:05:38;27.40;;;13.10;;
61897;SDS011;47850;50.274;18.908;2023-02-11T04:08:07;29.80;;;15.30;;
61897;SDS011;47850;50.274;18.908;2023-02-11T04:10:35;36.20;;;15.90;;
61897;SDS011;47850;50.274;18.908;2023-02-11T04:13:03;34.90;;;15.40;;
61897;SDS011;47850;50.274;18.908;2023-02-11T04:15:31;30.80;;;14.70;;
61897;SDS011;47850;50.274;18.908;2023-02-11T04:17:59;25.40;;;12.70;;
61897;SDS011;47850;50.274;18.908;2023-02-11T04:20:28;30.60;;;14.30;;
61897;SDS011;47850;50.274;18.908;2023-02-11T04:22:56;43.80;;;18.80;;
61897;SDS011;47850;50.274;18.908;2023-02-11T04:25:24;37.20;;;16.70;;
61897;SDS011;47850;50.274;18.908;2023-02-11T04:27:52;35.20;;;15.30;;
61897;SDS011;47850;50.274;18.908;2023-02-11T04:30:20;31.30;;;12.90;;
61897;SDS011;47850;50.274;18.908;2023-02-11T04:32:48;36.90;;;16.30;;
61897;SDS011;47850;50.274;18.908;2023-02-11T04:35:16;39.00;;;17.80;;
61897;SDS011;47850;50.274;18.908;2023-02-11T04:37:43;31.30;;;14.90;;
61897;SDS011;47850;50.274;18.908;2023-02-11T04:40:11;35.10;;;14.50;;
61897;SDS011;47850;50.274;18.908;2023-02-11T04:42:39;29.10;;;12.80;;
61897;SDS011;47850;50.274;18.908;2023-02-11T04:45:07;22.20;;;11.90;;
61897;SDS011;47850;50.274;18.908;2023-02-11T04:47:35;26.70;;;12.90;;
61897;SDS011;47850;50.274;18.908;2023-02-11T04:50:04;31.90;;;15.30;;
61897;SDS011;47850;50.274;18.908;2023-02-11T04:52:32;29.40;;;13.40;;
61897;SDS011;47850;50.274;18.908;2023-02-11T04:55:00;28.30;;;13.30;;
61897;SDS011;47850;50.274;18.908;2023-02-11T04:57:28;36.90;;;15.70;;
61897;SDS011;47850;50.274;18.908;2023-02-11T04:59:56;31.40;;;14.50;;
61897;SDS011;47850;50.274;18.908;2023-02-11T05:02:23;33.30;;;16.00;;
61897;SDS011;47850;50.274;18.908;2023-02-11T05:04:51;23.50;;;11.60;;
61897;SDS011;47850;50.274;18.908;2023-02-11T05:07:19;39.10;;;15.60;;
61897;SDS011;47850;50.274;18.908;2023-02-11T05:09:47;33.40;;;15.90;;
61897;SDS011;47850;50.274;18.908;2023-02-11T05:12:15;25.50;;;11.40;;
61897;SDS011;47850;50.274;18.908;2023-02-11T05:14:43;37.10;;;17.40;;
61897;SDS011;47850;50.274;18.908;2023-02-11T05:17:10;17.00;;;9.50;;
61897;SDS011;47850;50.274;18.908;2023-02-11T05:19:38;33.10;;;15.90;;
61897;SDS011;47850;50.274;18.908;2023-02-11T05:22:06;34.40;;;15.90;;
61897;SDS011;47850;50.274;18.908;2023-02-11T05:24:34;40.60;;;17.70;;
61897;SDS011;47850;50.274;18.908;2023-02-11T05:27:01;26.50;;;12.90;;
61897;SDS011;47850;50.274;18.908;2023-02-11T05:29:29;19.10;;;9.10;;
61897;SDS011;47850;50.274;18.908;2023-02-11T05:31:58;33.30;;;16.90;;
61897;SDS011;47850;50.274;18.908;2023-02-11T05:34:26;31.80;;;14.20;;
61897;SDS011;47850;50.274;18.908;2023-02-11T05:36:54;25.00;;;11.80;;
61897;SDS011;47850;50.274;18.908;2023-02-11T05:39:22;32.70;;;15.40;;
61897;SDS011;47850;50.274;18.908;2023-02-11T05:41:50;23.80;;;11.00;;
61897;SDS011;47850;50.274;18.908;2023-02-11T05:44:18;36.90;;;15.50;;
61897;SDS011;47850;50.274;18.908;2023-02-11T05:46:45;25.10;;;10.70;;
61897;SDS011;47850;50.274;18.908;2023-02-11T05:49:14;30.60;;;13.90;;
61897;SDS011;47850;50.274;18.908;2023-02-11T05:51:43;27.60;;;12.90;;
61897;SDS011;47850;50.274;18.908;2023-02-11T05:54:11;21.00;;;9.90;;
61897;SDS011;47850;50.274;18.908;2023-02-11T05:56:38;32.30;;;15.00;;
61897;SDS011;47850;50.274;18.908;2023-02-11T05:59:06;34.30;;;16.50;;
61897;SDS011;47850;50.274;18.908;2023-02-11T06:01:34;22.80;;;11.40;;
61897;SDS011;47850;50.274;18.908;2023-02-11T06:04:02;17.40;;;10.50;;
61897;SDS011;47850;50.274;18.908;2023-02-11T06:06:30;34.90;;;16.10;;
61897;SDS011;47850;50.274;18.908;2023-02-11T06:08:58;32.50;;;15.20;;
61897;SDS011;47850;50.274;18.908;2023-02-11T06:11:26;26.20;;;12.00;;
61897;SDS011;47850;50.274;18.908;2023-02-11T06:13:53;23.20;;;10.80;;
61897;SDS011;47850;50.274;18.908;2023-02-11T06:16:21;20.40;;;10.10;;
61897;SDS011;47850;50.274;18.908;2023-02-11T06:18:49;24.90;;;12.20;;
61897;SDS011;47850;50.274;18.908;2023-02-11T06:21:17;20.10;;;10.20;;
61897;SDS011;47850;50.274;18.908;2023-02-11T06:23:44;24.50;;;12.00;;
61897;SDS011;47850;50.274;18.908;2023-02-11T06:26:16;23.20;;;11.80;;
61897;SDS011;47850;50.274;18.908;2023-02-11T06:28:46;35.70;;;16.20;;
61897;SDS011;47850;50.274;18.908;2023-02-11T06:31:14;34.00;;;15.40;;
61897;SDS011;47850;50.274;18.908;2023-02-11T06:33:42;19.90;;;9.20;;
61897;SDS011;47850;50.274;18.908;2023-02-11T06:36:14;21.40;;;10.00;;
61897;SDS011;47850;50.274;18.908;2023-02-11T06:38:44;17.10;;;9.40;;
61897;SDS011;47850;50.274;18.908;2023-02-11T06:41:13;30.00;;;14.50;;
61897;SDS011;47850;50.274;18.908;2023-02-11T06:43:43;21.80;;;9.50;;
61897;SDS011;47850;50.274;18.908;2023-02-11T06:46:11;27.50;;;12.80;;
61897;SDS011;47850;50.274;18.908;2023-02-11T06:48:39;27.80;;;14.60;;
61897;SDS011;47850;50.274;18.908;2023-02-11T06:51:08;19.00;;;9.70;;
61897;SDS011;47850;50.274;18.908;2023-02-11T06:53:38;34.90;;;15.40;;
61897;SDS011;47850;50.274;18.908;2023-02-11T06:56:10;34.40;;;16.00;;
61897;SDS011;47850;50.274;18.908;2023-02-11T06:58:39;25.70;;;10.10;;
61897;SDS011;47850;50.274;18.908;2023-02-11T07:01:10;34.20;;;15.90;;
61897;SDS011;47850;50.274;18.908;2023-02-11T07:03:40;28.90;;;13.50;;
61897;SDS011;47850;50.274;18.908;2023-02-11T07:06:14;26.60;;;11.50;;
61897;SDS011;47850;50.274;18.908;2023-02-11T07:08:44;35.30;;;13.50;;
61897;SDS011;47850;50.274;18.908;2023-02-11T07:11:22;31.60;;;15.60;;
61897;SDS011;47850;50.274;18.908;2023-02-11T07:13:55;17.50;;;8.50;;
61897;SDS011;47850;50.274;18.908;2023-02-11T07:16:26;26.60;;;11.30;;
61897;SDS011;47850;50.274;18.908;2023-02-11T07:18:54;29.40;;;12.80;;
61897;SDS011;47850;50.274;18.908;2023-02-11T07:21:22;28.50;;;13.70;;
61897;SDS011;47850;50.274;18.908;2023-02-11T07:23:50;31.80;;;15.00;;
61897;SDS011;47850;50.274;18.908;2023-02-11T07:26:19;23.10;;;10.90;;
61897;SDS011;47850;50.274;18.908;2023-02-11T07:28:55;19.90;;;10.10;;
61897;SDS011;47850;50.274;18.908;2023-02-11T07:31:24;32.70;;;14.30;;
61897;SDS011;47850;50.274;18.908;2023-02-11T07:33:55;36.30;;;15.50;;
61897;SDS011;47850;50.274;18.908;2023-02-11T07:36:26;29.20;;;13.80;;
61897;SDS011;47850;50.274;18.908;2023-02-11T07:41:24;32.50;;;14.60;;
61897;SDS011;47850;50.274;18.908;2023-02-11T07:43:54;22.50;;;10.50;;
61897;SDS011;47850;50.274;18.908;2023-02-11T07:46:23;29.90;;;14.60;;
61897;SDS011;47850;50.274;18.908;2023-02-11T07:48:53;29.80;;;11.60;;
61897;SDS011;47850;50.274;18.908;2023-02-11T07:51:25;30.20;;;13.90;;
61897;SDS011;47850;50.274;18.908;2023-02-11T07:53:56;28.60;;;14.70;;
61897;SDS011;47850;50.274;18.908;2023-02-11T07:56:25;29.10;;;13.30;;
61897;SDS011;47850;50.274;18.908;2023-02-11T07:58:55;33.50;;;16.30;;
61897;SDS011;47850;50.274;18.908;2023-02-11T08:01:28;22.00;;;10.50;;
61897;SDS011;47850;50.274;18.908;2023-02-11T08:03:57;42.10;;;14.70;;
61897;SDS011;47850;50.274;18.908;2023-02-11T08:06:27;39.80;;;18.60;;
61897;SDS011;47850;50.274;18.908;2023-02-11T08:08:57;32.70;;;14.90;;
61897;SDS011;47850;50.274;18.908;2023-02-11T08:11:29;36.50;;;17.20;;
61897;SDS011;47850;50.274;18.908;2023-02-11T08:13:57;24.00;;;12.10;;
61897;SDS011;47850;50.274;18.908;2023-02-11T08:16:26;20.80;;;10.60;;
61897;SDS011;47850;50.274;18.908;2023-02-11T08:18:57;25.80;;;12.00;;
61897;SDS011;47850;50.274;18.908;2023-02-11T08:21:27;33.80;;;14.90;;
61897;SDS011;47850;50.274;18.908;2023-02-11T08:23:55;27.60;;;13.00;;
61897;SDS011;47850;50.274;18.908;2023-02-11T08:26:24;37.90;;;18.10;;
61897;SDS011;47850;50.274;18.908;2023-02-11T08:28:55;32.50;;;16.10;;
61897;SDS011;47850;50.274;18.908;2023-02-11T08:31:28;24.80;;;11.90;;
61897;SDS011;47850;50.274;18.908;2023-02-11T08:33:58;27.00;;;11.00;;
61897;SDS011;47850;50.274;18.908;2023-02-11T08:36:27;29.10;;;14.20;;
61897;SDS011;47850;50.274;18.908;2023-02-11T08:38:58;42.90;;;19.30;;
61897;SDS011;47850;50.274;18.908;2023-02-11T08:41:30;31.30;;;14.20;;
61897;SDS011;47850;50.274;18.908;2023-02-11T08:43:59;32.70;;;15.50;;
61897;SDS011;47850;50.274;18.908;2023-02-11T08:46:27;38.60;;;17.70;;
61897;SDS011;47850;50.274;18.908;2023-02-11T08:48:55;26.70;;;12.90;;
61897;SDS011;47850;50.274;18.908;2023-02-11T08:51:24;30.60;;;14.10;;
61897;SDS011;47850;50.274;18.908;2023-02-11T08:53:54;26.90;;;12.30;;
61897;SDS011;47850;50.274;18.908;2023-02-11T08:56:23;41.10;;;20.30;;
61897;SDS011;47850;50.274;18.908;2023-02-11T08:58:51;40.30;;;18.60;;
61897;SDS011;47850;50.274;18.908;2023-02-11T09:01:22;32.40;;;15.60;;
61897;SDS011;47850;50.274;18.908;2023-02-11T09:03:52;40.10;;;16.90;;
61897;SDS011;47850;50.274;18.908;2023-02-11T09:06:21;45.90;;;21.00;;
61897;SDS011;47850;50.274;18.908;2023-02-11T09:08:51;25.60;;;13.10;;
61897;SDS011;47850;50.274;18.908;2023-02-11T09:11:24;25.30;;;12.50;;
61897;SDS011;47850;50.274;18.908;2023-02-11T09:13:56;18.90;;;10.10;;
61897;SDS011;47850;50.274;18.908;2023-02-11T09:16:25;30.60;;;15.30;;
61897;SDS011;47850;50.274;18.908;2023-02-11T09:19:00;37.00;;;18.20;;
61897;SDS011;47850;50.274;18.908;2023-02-11T09:21:29;29.20;;;14.70;;
61897;SDS011;47850;50.274;18.908;2023-02-11T09:23:58;44.60;;;19.30;;
61897;SDS011;47850;50.274;18.908;2023-02-11T09:26:27;36.30;;;16.10;;
61897;SDS011;47850;50.274;18.908;2023-02-11T09:28:57;28.00;;;14.70;;
61897;SDS011;47850;50.274;18.908;2023-02-11T09:31:26;21.40;;;11.20;;
61897;SDS011;47850;50.274;18.908;2023-02-11T09:33:56;37.10;;;18.70;;
61897;SDS011;47850;50.274;18.908;2023-02-11T09:36:27;34.70;;;17.60;;
61897;SDS011;47850;50.274;18.908;2023-02-11T09:38:58;24.30;;;12.50;;
61897;SDS011;47850;50.274;18.908;2023-02-11T09:44:05;32.70;;;15.70;;
61897;SDS011;47850;50.274;18.908;2023-02-11T09:46:39;27.50;;;12.90;;
61897;SDS011;47850;50.274;18.908;2023-02-11T09:49:14;34.30;;;16.70;;
61897;SDS011;47850;50.274;18.908;2023-02-11T09:51:54;41.70;;;19.30;;
61897;SDS011;47850;50.274;18.908;2023-02-11T09:57:28;32.70;;;16.60;;
61897;SDS011;47850;50.274;18.908;2023-02-11T10:00:00;36.40;;;17.60;;
61897;SDS011;47850;50.274;18.908;2023-02-11T10:22:58;44.50;;;21.50;;
61897;SDS011;47850;50.274;18.908;2023-02-11T10:25:40;35.70;;;18.00;;
61897;SDS011;47850;50.274;18.908;2023-02-11T10:28:13;28.90;;;15.40;;
61897;SDS011;47850;50.274;18.908;2023-02-11T10:33:24;41.00;;;21.70;;
61897;SDS011;47850;50.274;18.908;2023-02-11T10:36:03;26.40;;;13.70;;
61897;SDS011;47850;50.274;18.908;2023-02-11T10:38:31;41.90;;;19.70;;
61897;SDS011;47850;50.274;18.908;2023-02-11T10:41:00;28.20;;;14.30;;
61897;SDS011;47850;50.274;18.908;2023-02-11T10:43:28;41.10;;;19.20;;
61897;SDS011;47850;50.274;18.908;2023-02-11T10:45:58;35.20;;;20.20;;
61897;SDS011;47850;50.274;18.908;2023-02-11T10:53:44;40.90;;;21.70;;
61897;SDS011;47850;50.274;18.908;2023-02-11T10:56:19;42.60;;;20.40;;
61897;SDS011;47850;50.274;18.908;2023-02-11T10:59:03;37.90;;;19.30;;
61897;SDS011;47850;50.274;18.908;2023-02-11T11:01:50;37.00;;;18.30;;
61897;SDS011;47850;50.274;18.908;2023-02-11T11:07:15;41.70;;;21.80;;
61897;SDS011;47850;50.274;18.908;2023-02-11T11:12:34;30.10;;;14.20;;
61897;SDS011;47850;50.274;18.908;2023-02-11T11:17:37;24.30;;;11.40;;
61897;SDS011;47850;50.274;18.908;2023-02-11T11:20:25;36.20;;;18.50;;
61897;SDS011;47850;50.274;18.908;2023-02-11T11:23:14;28.70;;;16.00;;
61897;SDS011;47850;50.274;18.908;2023-02-11T11:25:45;37.30;;;18.80;;
61897;SDS011;47850;50.274;18.908;2023-02-11T11:28:27;23.50;;;12.30;;
61897;SDS011;47850;50.274;18.908;2023-02-11T11:30:57;35.50;;;15.40;;
61897;SDS011;47850;50.274;18.908;2023-02-11T11:33:32;31.80;;;15.80;;
61897;SDS011;47850;50.274;18.908;2023-02-11T11:36:06;39.60;;;19.70;;
61897;SDS011;47850;50.274;18.908;2023-02-11T11:38:37;36.70;;;18.40;;
61897;SDS011;47850;50.274;18.908;2023-02-11T11:41:15;40.60;;;21.20;;
61897;SDS011;47850;50.274;18.908;2023-02-11T11:46:33;33.90;;;16.60;;
61897;SDS011;47850;50.274;18.908;2023-02-11T11:52:10;26.80;;;13.70;;
61897;SDS011;47850;50.274;18.908;2023-02-11T11:54:49;25.40;;;12.90;;
61897;SDS011;47850;50.274;18.908;2023-02-11T11:57:26;35.60;;;19.00;;
61897;SDS011;47850;50.274;18.908;2023-02-11T11:59:56;35.40;;;17.90;;
61897;SDS011;47850;50.274;18.908;2023-02-11T12:05:25;39.90;;;19.80;;
61897;SDS011;47850;50.274;18.908;2023-02-11T12:11:29;38.50;;;18.80;;
61897;SDS011;47850;50.274;18.908;2023-02-11T12:14:00;45.50;;;20.40;;
61897;SDS011;47850;50.274;18.908;2023-02-11T12:19:30;27.50;;;14.00;;
61897;SDS011;47850;50.274;18.908;2023-02-11T12:24:59;43.60;;;21.80;;
61897;SDS011;47850;50.274;18.908;2023-02-11T12:30:36;26.60;;;13.30;;
61897;SDS011;47850;50.274;18.908;2023-02-11T12:33:39;47.70;;;24.40;;
61897;SDS011;47850;50.274;18.908;2023-02-11T12:42:04;45.70;;;23.40;;
61897;SDS011;47850;50.274;18.908;2023-02-11T12:45:06;37.00;;;17.20;;
61897;SDS011;47850;50.274;18.908;2023-02-11T12:50:21;40.20;;;19.00;;
61897;SDS011;47850;50.274;18.908;2023-02-11T12:55:44;44.50;;;20.00;;
61897;SDS011;47850;50.274;18.908;2023-02-11T12:58:20;32.60;;;15.50;;
61897;SDS011;47850;50.274;18.908;2023-02-11T13:00:54;35.40;;;17.10;;
61897;SDS011;47850;50.274;18.908;2023-02-11T13:03:38;33.70;;;17.00;;
61897;SDS011;47850;50.274;18.908;2023-02-11T13:06:10;29.40;;;16.00;;
61897;SDS011;47850;50.274;18.908;2023-02-11T13:09:10;46.50;;;22.50;;
61897;SDS011;47850;50.274;18.908;2023-02-11T13:12:01;41.20;;;20.40;;
61897;SDS011;47850;50.274;18.908;2023-02-11T13:14:49;50.30;;;22.70;;
61897;SDS011;47850;50.274;18.908;2023-02-11T13:17:25;43.30;;;18.80;;
61897;SDS011;47850;50.274;18.908;2023-02-11T13:20:03;23.60;;;13.60;;
61897;SDS011;47850;50.274;18.908;2023-02-11T13:22:49;42.80;;;20.60;;
61897;SDS011;47850;50.274;18.908;2023-02-11T13:30:52;36.30;;;18.20;;
61897;SDS011;47850;50.274;18.908;2023-02-11T13:33:32;41.80;;;19.00;;
61897;SDS011;47850;50.274;18.908;2023-02-11T13:38:34;31.20;;;14.80;;
61897;SDS011;47850;50.274;18.908;2023-02-11T13:41:23;44.40;;;19.80;;
61897;SDS011;47850;50.274;18.908;2023-02-11T13:46:56;41.20;;;20.00;;
61897;SDS011;47850;50.274;18.908;2023-02-11T13:52:02;34.20;;;16.60;;
61897;SDS011;47850;50.274;18.908;2023-02-11T13:54:34;30.80;;;15.80;;
61897;SDS011;47850;50.274;18.908;2023-02-11T13:59:47;35.00;;;18.60;;
61897;SDS011;47850;50.274;18.908;2023-02-11T14:02:23;31.10;;;15.00;;
61897;SDS011;47850;50.274;18.908;2023-02-11T14:10:59;49.30;;;24.10;;
61897;SDS011;47850;50.274;18.908;2023-02-11T14:16:11;44.20;;;20.70;;
61897;SDS011;47850;50.274;18.908;2023-02-11T14:21:15;32.70;;;15.90;;
61897;SDS011;47850;50.274;18.908;2023-02-11T14:23:49;32.50;;;16.40;;
61897;SDS011;47850;50.274;18.908;2023-02-11T14:31:43;32.50;;;17.40;;
61897;SDS011;47850;50.274;18.908;2023-02-11T14:36:57;46.50;;;22.60;;
61897;SDS011;47850;50.274;18.908;2023-02-11T14:42:16;28.50;;;15.40;;
61897;SDS011;47850;50.274;18.908;2023-02-11T14:44:48;41.60;;;19.50;;
61897;SDS011;47850;50.274;18.908;2023-02-11T14:47:20;41.40;;;20.50;;
61897;SDS011;47850;50.274;18.908;2023-02-11T14:49:52;50.00;;;23.30;;
61897;SDS011;47850;50.274;18.908;2023-02-11T14:55:00;35.40;;;16.50;;
61897;SDS011;47850;50.274;18.908;2023-02-11T14:57:31;41.90;;;18.20;;
61897;SDS011;47850;50.274;18.908;2023-02-11T15:00:01;37.20;;;16.40;;
61897;SDS011;47850;50.274;18.908;2023-02-11T15:02:46;47.40;;;22.60;;
61897;SDS011;47850;50.274;18.908;2023-02-11T15:05:17;58.60;;;27.50;;
61897;SDS011;47850;50.274;18.908;2023-02-11T15:07:53;50.30;;;23.30;;
61897;SDS011;47850;50.274;18.908;2023-02-11T15:10:26;46.50;;;23.50;;
61897;SDS011;47850;50.274;18.908;2023-02-11T15:12:55;53.80;;;23.80;;
61897;SDS011;47850;50.274;18.908;2023-02-11T15:15:24;53.60;;;22.50;;
61897;SDS011;47850;50.274;18.908;2023-02-11T15:17:54;50.30;;;24.90;;
61897;SDS011;47850;50.274;18.908;2023-02-11T15:20:26;45.00;;;18.10;;
61897;SDS011;47850;50.274;18.908;2023-02-11T15:22:56;51.30;;;21.70;;
61897;SDS011;47850;50.274;18.908;2023-02-11T15:25:27;40.50;;;18.20;;
61897;SDS011;47850;50.274;18.908;2023-02-11T15:27:56;40.60;;;19.40;;
61897;SDS011;47850;50.274;18.908;2023-02-11T15:30:26;40.00;;;16.30;;
61897;SDS011;47850;50.274;18.908;2023-02-11T15:32:58;44.20;;;21.10;;
61897;SDS011;47850;50.274;18.908;2023-02-11T15:35:30;43.00;;;20.80;;
61897;SDS011;47850;50.274;18.908;2023-02-11T15:38:04;50.60;;;24.70;;
61897;SDS011;47850;50.274;18.908;2023-02-11T15:40:33;58.90;;;25.70;;
61897;SDS011;47850;50.274;18.908;2023-02-11T15:43:04;39.40;;;18.50;;
61897;SDS011;47850;50.274;18.908;2023-02-11T15:45:35;45.00;;;21.40;;
61897;SDS011;47850;50.274;18.908;2023-02-11T15:51:27;52.40;;;22.50;;
61897;SDS011;47850;50.274;18.908;2023-02-11T15:54:00;58.20;;;28.20;;
61897;SDS011;47850;50.274;18.908;2023-02-11T15:56:34;55.60;;;21.70;;
61897;SDS011;47850;50.274;18.908;2023-02-11T15:59:17;70.90;;;30.40;;
61897;SDS011;47850;50.274;18.908;2023-02-11T16:01:53;50.10;;;22.10;;
61897;SDS011;47850;50.274;18.908;2023-02-11T16:04:22;45.70;;;19.70;;
61897;SDS011;47850;50.274;18.908;2023-02-11T16:06:53;51.30;;;22.20;;
61897;SDS011;47850;50.274;18.908;2023-02-11T16:09:32;41.10;;;17.80;;
61897;SDS011;47850;50.274;18.908;2023-02-11T16:12:23;26.80;;;14.60;;
61897;SDS011;47850;50.274;18.908;2023-02-11T16:14:51;33.20;;;15.30;;
61897;SDS011;47850;50.274;18.908;2023-02-11T16:17:23;46.90;;;20.70;;
61897;SDS011;47850;50.274;18.908;2023-02-11T16:19:54;49.20;;;21.10;;
61897;SDS011;47850;50.274;18.908;2023-02-11T16:22:23;64.90;;;29.00;;
61897;SDS011;47850;50.274;18.908;2023-02-11T16:24:54;40.60;;;20.00;;
61897;SDS011;47850;50.274;18.908;2023-02-11T16:27:25;65.70;;;30.30;;
61897;SDS011;47850;50.274;18.908;2023-02-11T16:30:04;49.10;;;23.00;;
61897;SDS011;47850;50.274;18.908;2023-02-11T16:32:47;68.90;;;29.90;;
61897;SDS011;47850;50.274;18.908;2023-02-11T16:35:15;49.20;;;23.40;;
61897;SDS011;47850;50.274;18.908;2023-02-11T16:37:42;56.20;;;23.70;;
61897;SDS011;47850;50.274;18.908;2023-02-11T16:40:10;79.40;;;34.60;;
61897;SDS011;47850;50.274;18.908;2023-02-11T16:42:40;69.70;;;31.10;;
61897;SDS011;47850;50.274;18.908;2023-02-11T16:45:08;76.40;;;35.10;;
61897;SDS011;47850;50.274;18.908;2023-02-11T16:47:36;62.80;;;28.50;;
61897;SDS011;47850;50.274;18.908;2023-02-11T16:50:08;55.50;;;25.40;;
61897;SDS011;47850;50.274;18.908;2023-02-11T16:52:45;51.50;;;21.80;;
61897;SDS011;47850;50.274;18.908;2023-02-11T16:55:13;62.50;;;29.00;;
61897;SDS011;47850;50.274;18.908;2023-02-11T16:57:41;70.60;;;30.30;;
61897;SDS011;47850;50.274;18.908;2023-02-11T17:00:09;72.90;;;32.20;;
61897;SDS011;47850;50.274;18.908;2023-02-11T17:02:42;65.10;;;28.90;;
61897;SDS011;47850;50.274;18.908;2023-02-11T17:05:18;37.90;;;19.00;;
61897;SDS011;47850;50.274;18.908;2023-02-11T17:07:49;79.50;;;35.40;;
61897;SDS011;47850;50.274;18.908;2023-02-11T17:10:19;71.50;;;32.00;;
61897;SDS011;47850;50.274;18.908;2023-02-11T17:12:51;73.50;;;32.20;;
61897;SDS011;47850;50.274;18.908;2023-02-11T17:15:19;80.10;;;32.60;;
61897;SDS011;47850;50.274;18.908;2023-02-11T17:17:47;51.50;;;20.90;;
61897;SDS011;47850;50.274;18.908;2023-02-11T17:20:15;53.70;;;24.40;;
61897;SDS011;47850;50.274;18.908;2023-02-11T17:22:43;57.50;;;23.70;;
61897;SDS011;47850;50.274;18.908;2023-02-11T17:25:11;76.20;;;34.00;;